createdAt,value
2023-02-16T00:01:48.046Z,29.80
2023-02-16T00:04:22.969Z,28.38
2023-02-16T00:06:49.897Z,26.52
2023-02-16T00:09:17.238Z,28.77
2023-02-16T00:12:02.577Z,27.75
2023-02-16T00:14:29.798Z,28.83
2023-02-16T00:16:57.482Z,27.42
2023-02-16T00:19:27.589Z,28.88
2023-02-16T00:21:56.128Z,29.83
2023-02-16T00:24:23.582Z,29.10
2023-02-16T00:26:50.677Z,28.35
2023-02-16T00:29:23.376Z,28.48
2023-02-16T00:31:50.543Z,28.65
2023-02-16T00:34:31.249Z,29.08
2023-02-16T00:36:58.873Z,29.02
2023-02-16T00:39:26.229Z,28.60
2023-02-16T00:41:58.011Z,28.77
2023-02-16T00:44:34.138Z,30.38
2023-02-16T00:47:25.807Z,28.33
2023-02-16T00:49:53.718Z,27.55
2023-02-16T00:52:23.660Z,28.48
2023-02-16T00:54:50.718Z,28.00
2023-02-16T00:57:17.959Z,28.13
2023-02-16T00:59:45.466Z,30.23
2023-02-16T01:02:12.187Z,29.42
2023-02-16T01:04:39.524Z,29.25
2023-02-16T01:07:30.526Z,28.65
2023-02-16T01:10:15.990Z,28.52
2023-02-16T01:12:42.799Z,30.23
2023-02-16T01:15:12.725Z,29.80
2023-02-16T01:17:39.469Z,29.08
2023-02-16T01:20:19.356Z,28.55
2023-02-16T01:22:46.147Z,28.58
2023-02-16T01:25:14.292Z,30.80
2023-02-16T01:27:41.200Z,28.90
2023-02-16T01:30:21.683Z,29.63
2023-02-16T01:32:51.892Z,29.85
2023-02-16T01:35:23.637Z,30.08
2023-02-16T01:37:50.452Z,30.58
2023-02-16T01:40:35.278Z,29.58
2023-02-16T01:43:21.892Z,31.98
2023-02-16T01:45:54.645Z,28.25
2023-02-16T01:48:25.129Z,28.70
2023-02-16T01:50:57.704Z,31.85
2023-02-16T01:53:48.937Z,30.17
2023-02-16T01:56:25.419Z,31.10
2023-02-16T01:58:54.662Z,31.52
2023-02-16T02:01:42.017Z,29.42
2023-02-16T02:04:48.818Z,28.65
2023-02-16T02:07:38.634Z,29.50
2023-02-16T02:10:20.220Z,30.05
2023-02-16T02:13:12.331Z,30.65
2023-02-16T02:15:39.085Z,30.20
2023-02-16T02:18:06.213Z,30.90
2023-02-16T02:21:24.058Z,30.40
2023-02-16T02:24:04.864Z,30.20
2023-02-16T02:26:55.897Z,31.67
2023-02-16T02:29:46.741Z,29.85
2023-02-16T02:32:31.862Z,30.60
2023-02-16T02:35:17.528Z,30.95
2023-02-16T02:37:47.226Z,29.75
2023-02-16T02:40:40.931Z,32.67
2023-02-16T02:43:13.935Z,31.65
2023-02-16T02:45:54.448Z,29.80
2023-02-16T02:48:21.224Z,30.27
2023-02-16T02:51:08.797Z,28.95
2023-02-16T02:53:38.192Z,31.50
2023-02-16T02:56:23.887Z,31.17
2023-02-16T02:59:11.174Z,31.67
2023-02-16T03:01:38.481Z,32.65
2023-02-16T03:04:05.563Z,33.78
2023-02-16T03:06:40.875Z,31.55
2023-02-16T03:09:11.524Z,30.73
2023-02-16T03:11:57.068Z,32.13
2023-02-16T03:14:30.901Z,33.05
2023-02-16T03:17:18.330Z,32.25
2023-02-16T03:20:05.384Z,31.98
2023-02-16T03:22:51.055Z,31.70
2023-02-16T03:25:36.449Z,33.40
2023-02-16T03:30:49.681Z,31.15
2023-02-16T03:33:16.785Z,31.98
2023-02-16T03:35:43.697Z,31.02
2023-02-16T03:38:10.738Z,32.97
2023-02-16T03:40:39.570Z,31.95
2023-02-16T03:43:08.114Z,31.45
2023-02-16T03:45:37.117Z,32.10
2023-02-16T03:48:04.260Z,29.15
2023-02-16T03:50:31.273Z,30.67
2023-02-16T03:53:07.598Z,32.63
2023-02-16T03:55:42.343Z,31.75
2023-02-16T03:58:10.963Z,29.40
2023-02-16T04:00:37.805Z,30.52
2023-02-16T04:03:05.693Z,31.02
2023-02-16T04:05:32.624Z,29.33
2023-02-16T04:07:59.687Z,31.63
2023-02-16T04:10:26.549Z,31.25
2023-02-16T04:12:53.701Z,29.50
2023-02-16T04:15:22.267Z,30.80
2023-02-16T04:17:49.596Z,32.65
2023-02-16T04:20:18.831Z,31.77
2023-02-16T04:22:46.038Z,31.98
2023-02-16T04:25:12.883Z,32.83
2023-02-16T04:27:40.024Z,31.38
2023-02-16T04:30:07.491Z,32.28
2023-02-16T04:32:34.569Z,30.63
2023-02-16T04:35:01.326Z,30.90
2023-02-16T04:37:28.373Z,31.95
2023-02-16T04:39:55.230Z,30.77
2023-02-16T04:42:22.352Z,32.13
2023-02-16T04:44:49.090Z,31.13
2023-02-16T04:47:16.173Z,31.73
2023-02-16T04:49:42.989Z,33.67
2023-02-16T04:52:11.961Z,29.13
2023-02-16T04:54:38.788Z,32.30
2023-02-16T04:57:05.830Z,31.75
2023-02-16T04:59:32.619Z,32.25
2023-02-16T05:01:59.781Z,32.55
2023-02-16T05:04:26.683Z,31.60
2023-02-16T05:06:53.830Z,30.65
2023-02-16T05:09:20.773Z,31.05
2023-02-16T05:12:06.529Z,33.95
2023-02-16T05:14:46.993Z,32.50
2023-02-16T05:17:16.575Z,31.50
2023-02-16T05:19:44.618Z,31.05
2023-02-16T05:22:11.895Z,32.22
2023-02-16T05:24:39.152Z,31.77
2023-02-16T05:27:07.722Z,32.17
2023-02-16T05:29:34.707Z,34.13
2023-02-16T05:32:04.377Z,31.13
2023-02-16T05:34:31.586Z,34.10
2023-02-16T05:36:58.631Z,30.45
2023-02-16T05:39:25.899Z,31.48
2023-02-16T05:41:52.974Z,31.40
2023-02-16T05:44:19.769Z,32.03
2023-02-16T05:46:46.868Z,30.20
2023-02-16T05:49:14.408Z,31.15
2023-02-16T05:51:41.738Z,31.17
2023-02-16T05:54:10.680Z,29.00
2023-02-16T05:56:37.785Z,29.83
2023-02-16T05:59:04.521Z,30.88
2023-02-16T06:01:31.578Z,29.20
2023-02-16T06:03:58.397Z,30.65
2023-02-16T06:06:25.470Z,29.27
2023-02-16T06:08:52.514Z,28.60
2023-02-16T06:11:37.881Z,31.05
2023-02-16T06:14:12.735Z,30.05
2023-02-16T06:16:41.051Z,30.05
2023-02-16T06:19:07.849Z,30.75
2023-02-16T06:21:35.390Z,29.10
2023-02-16T06:24:02.233Z,29.17
2023-02-16T06:26:29.343Z,30.00
2023-02-16T06:28:56.165Z,29.83
2023-02-16T06:31:23.820Z,30.25
2023-02-16T06:33:51.015Z,29.63
2023-02-16T06:36:18.250Z,30.55
2023-02-16T06:38:45.515Z,30.08
2023-02-16T06:41:12.723Z,30.02
2023-02-16T06:43:39.529Z,30.67
2023-02-16T06:46:06.740Z,29.88
2023-02-16T06:48:33.649Z,29.77
2023-02-16T06:51:00.710Z,30.00
2023-02-16T06:53:27.531Z,30.80
2023-02-16T06:55:54.666Z,31.35
2023-02-16T06:58:21.536Z,30.00
2023-02-16T07:00:48.684Z,31.25
2023-02-16T07:03:15.561Z,30.85
2023-02-16T07:05:44.180Z,31.42
2023-02-16T07:08:11.135Z,30.75
2023-02-16T07:10:49.288Z,31.90
2023-02-16T07:13:17.040Z,31.55
2023-02-16T07:15:44.140Z,32.00
2023-02-16T07:18:10.875Z,30.27
2023-02-16T07:20:38.039Z,30.70
2023-02-16T07:23:04.952Z,30.52
2023-02-16T07:25:32.094Z,29.92
2023-02-16T07:27:58.909Z,31.90
2023-02-16T07:30:25.990Z,30.27
2023-02-16T07:32:52.792Z,30.38
2023-02-16T07:35:20.151Z,32.22
2023-02-16T07:37:46.991Z,30.77
2023-02-16T07:40:14.022Z,29.45
2023-02-16T07:42:40.799Z,31.15
2023-02-16T07:45:08.294Z,30.90
2023-02-16T07:47:35.092Z,29.20
2023-02-16T07:50:02.207Z,31.65
2023-02-16T07:52:31.238Z,30.38
2023-02-16T07:55:01.182Z,30.83
2023-02-16T07:57:28.200Z,30.02
2023-02-16T07:59:55.650Z,30.90
2023-02-16T08:02:22.742Z,29.48
2023-02-16T08:04:50.017Z,30.60
2023-02-16T08:07:17.376Z,30.70
2023-02-16T08:09:44.622Z,29.17
2023-02-16T08:12:12.465Z,28.52
2023-02-16T08:14:39.901Z,28.90
2023-02-16T08:17:07.676Z,28.55
2023-02-16T08:19:34.987Z,30.98
2023-02-16T08:22:02.552Z,28.48
2023-02-16T08:24:29.669Z,29.02
2023-02-16T08:26:56.704Z,29.48
2023-02-16T08:29:23.796Z,30.67
2023-02-16T08:31:50.728Z,30.80
2023-02-16T08:34:18.791Z,31.30
2023-02-16T08:36:53.251Z,30.25
2023-02-16T08:39:21.037Z,30.70
2023-02-16T08:41:48.497Z,27.67
2023-02-16T08:44:16.081Z,30.20
2023-02-16T08:46:43.844Z,30.10
2023-02-16T08:49:11.936Z,32.75
2023-02-16T08:51:42.696Z,31.35
2023-02-16T08:54:13.595Z,31.65
2023-02-16T08:56:41.623Z,32.58
2023-02-16T08:59:08.768Z,32.30
2023-02-16T09:01:35.987Z,32.30
2023-02-16T09:04:03.131Z,31.67
2023-02-16T09:06:29.866Z,30.85
2023-02-16T09:08:57.276Z,29.60
2023-02-16T09:11:24.532Z,31.48
2023-02-16T09:13:51.746Z,30.73
2023-02-16T09:16:20.613Z,31.25
2023-02-16T09:18:48.171Z,31.17
2023-02-16T09:21:20.988Z,30.25
2023-02-16T09:23:49.344Z,31.08
2023-02-16T09:26:18.081Z,31.17
2023-02-16T09:28:45.791Z,30.13
2023-02-16T09:31:20.309Z,32.13
2023-02-16T09:33:47.485Z,30.73
2023-02-16T09:36:14.293Z,30.00
2023-02-16T09:38:41.443Z,31.95
2023-02-16T09:41:23.446Z,29.52
2023-02-16T09:43:57.973Z,29.30
2023-02-16T09:46:25.381Z,31.50
2023-02-16T09:48:54.773Z,29.80
2023-02-16T09:51:48.196Z,30.80
2023-02-16T09:54:28.324Z,30.00
2023-02-16T09:56:58.180Z,27.33
2023-02-16T09:59:51.541Z,29.58
2023-02-16T10:02:39.909Z,27.67
2023-02-16T10:05:20.368Z,29.80
2023-02-16T10:07:57.598Z,30.00
2023-02-16T10:10:46.242Z,28.92
2023-02-16T10:13:26.235Z,27.70
2023-02-16T10:15:54.164Z,29.73
2023-02-16T10:18:42.193Z,29.00
2023-02-16T10:21:15.362Z,28.23
2023-02-16T10:23:48.609Z,29.65
2023-02-16T10:26:28.597Z,26.90
2023-02-16T10:28:56.869Z,27.90
2023-02-16T10:31:27.021Z,27.83
2023-02-16T10:34:15.611Z,26.33
2023-02-16T10:37:09.608Z,27.95
2023-02-16T10:39:42.726Z,29.40
2023-02-16T10:42:25.100Z,27.45
2023-02-16T10:45:06.095Z,29.05
2023-02-16T10:47:37.401Z,29.08
2023-02-16T10:50:09.887Z,29.35
2023-02-16T10:52:38.133Z,27.42
2023-02-16T10:55:05.779Z,29.30
2023-02-16T10:57:33.192Z,28.42
2023-02-16T11:00:02.309Z,31.77
2023-02-16T11:02:38.207Z,32.05
2023-02-16T11:05:32.330Z,34.60
2023-02-16T11:08:01.716Z,34.47
2023-02-16T11:10:51.922Z,35.72
2023-02-16T11:13:33.961Z,35.85
2023-02-16T11:16:05.581Z,35.80
2023-02-16T11:18:36.388Z,35.20
2023-02-16T11:21:03.911Z,34.47
2023-02-16T11:23:44.317Z,32.45
2023-02-16T11:26:11.805Z,33.85
2023-02-16T11:28:40.914Z,33.28
2023-02-16T11:31:12.421Z,33.65
2023-02-16T11:33:40.316Z,30.73
2023-02-16T11:36:19.787Z,32.20
2023-02-16T11:39:16.524Z,32.78
2023-02-16T11:44:33.186Z,32.10
2023-02-16T11:47:04.414Z,31.13
2023-02-16T11:49:36.980Z,31.23
2023-02-16T11:52:23.189Z,30.92
2023-02-16T11:54:51.900Z,29.45
2023-02-16T11:57:29.764Z,28.75
2023-02-16T11:59:57.305Z,30.45
2023-02-16T12:02:55.011Z,29.30
2023-02-16T12:05:47.333Z,30.25
2023-02-16T12:08:26.275Z,29.63
2023-02-16T12:11:19.491Z,30.80
2023-02-16T12:13:46.289Z,30.52
2023-02-16T12:16:32.104Z,29.77
2023-02-16T12:19:04.637Z,30.02
2023-02-16T12:21:40.839Z,30.85
2023-02-16T12:24:44.827Z,30.15
2023-02-16T12:27:39.193Z,29.60
2023-02-16T12:30:08.076Z,31.00
2023-02-16T12:32:57.788Z,28.30
2023-02-16T12:35:59.151Z,31.00
2023-02-16T12:38:39.692Z,29.40
2023-02-16T12:41:50.964Z,29.38
2023-02-16T12:44:21.179Z,30.48
2023-02-16T12:46:49.814Z,28.80
2023-02-16T12:49:24.597Z,29.00
2023-02-16T12:51:59.238Z,31.83
2023-02-16T12:54:35.660Z,29.52
2023-02-16T12:57:08.316Z,30.38
2023-02-16T12:59:56.634Z,31.30
2023-02-16T13:02:27.769Z,29.25
2023-02-16T13:05:03.227Z,28.77
2023-02-16T13:07:37.378Z,28.23
2023-02-16T13:10:14.733Z,28.33
2023-02-16T13:12:49.846Z,28.92
2023-02-16T13:15:20.693Z,28.90
2023-02-16T13:17:50.034Z,29.25
2023-02-16T13:20:19.815Z,29.00
2023-02-16T13:23:40.430Z,27.17
2023-02-16T13:26:26.385Z,27.17
2023-02-16T13:31:41.843Z,27.90
2023-02-16T13:34:12.034Z,29.42
2023-02-16T13:37:03.452Z,29.38
2023-02-16T13:40:08.120Z,29.48
2023-02-16T13:42:44.288Z,27.83
2023-02-16T13:45:19.825Z,28.95
2023-02-16T13:47:48.276Z,27.35
2023-02-16T13:50:35.667Z,28.50
2023-02-16T13:53:19.936Z,27.95
2023-02-16T13:55:47.004Z,29.60
2023-02-16T13:58:14.124Z,30.40
2023-02-16T14:00:48.567Z,29.80
2023-02-16T14:03:21.894Z,29.35
2023-02-16T14:05:53.021Z,29.00
2023-02-16T14:08:24.795Z,29.02
2023-02-16T14:10:53.926Z,29.27
2023-02-16T14:13:28.670Z,31.83
2023-02-16T14:15:56.750Z,31.13
2023-02-16T14:18:36.180Z,29.98
2023-02-16T14:21:07.748Z,30.67
2023-02-16T14:23:35.094Z,29.70
2023-02-16T14:26:03.724Z,29.65
2023-02-16T14:28:35.423Z,31.30
2023-02-16T14:31:12.705Z,32.45
2023-02-16T14:33:49.044Z,29.58
2023-02-16T14:36:18.383Z,30.58
2023-02-16T14:38:49.511Z,30.73
2023-02-16T14:41:22.547Z,33.85
2023-02-16T14:43:58.692Z,31.98
2023-02-16T14:46:47.220Z,32.10
2023-02-16T14:49:48.304Z,32.03
2023-02-16T14:52:41.183Z,30.90
2023-02-16T14:55:14.371Z,31.88
2023-02-16T14:57:41.232Z,28.65
2023-02-16T15:00:31.958Z,30.05
2023-02-16T15:02:59.947Z,33.25
2023-02-16T15:05:29.712Z,33.97
2023-02-16T15:08:14.049Z,32.30
2023-02-16T15:10:41.106Z,31.23
2023-02-16T15:13:07.959Z,33.80
2023-02-16T15:15:46.007Z,35.58
2023-02-16T15:18:23.609Z,36.33
2023-02-16T15:20:53.003Z,34.90
2023-02-16T15:23:24.496Z,34.38
2023-02-16T15:25:58.731Z,34.03
2023-02-16T15:28:39.220Z,33.30
2023-02-16T15:31:18.153Z,34.83
2023-02-16T15:33:54.951Z,34.60
2023-02-16T15:36:35.435Z,36.65
2023-02-16T15:39:13.285Z,33.28
2023-02-16T15:41:43.298Z,33.72
2023-02-16T15:44:34.457Z,35.38
2023-02-16T15:47:15.962Z,34.95
2023-02-16T15:49:42.779Z,34.45
2023-02-16T15:52:21.590Z,34.85
2023-02-16T15:54:48.552Z,34.42
2023-02-16T15:57:19.853Z,33.45
2023-02-16T15:59:48.726Z,32.92
2023-02-16T16:02:34.924Z,35.65
2023-02-16T16:05:03.234Z,35.55
2023-02-16T16:07:42.864Z,35.50
2023-02-16T16:10:15.525Z,33.63
2023-02-16T16:12:42.873Z,36.58
2023-02-16T16:15:15.716Z,36.05
2023-02-16T16:17:42.829Z,36.30
2023-02-16T16:20:24.891Z,35.35
2023-02-16T16:22:56.740Z,36.13
2023-02-16T16:25:35.932Z,37.08
2023-02-16T16:28:06.949Z,35.03
2023-02-16T16:30:34.883Z,37.25
2023-02-16T16:33:02.796Z,38.58
2023-02-16T16:35:37.985Z,36.40
2023-02-16T16:38:06.118Z,37.08
2023-02-16T16:40:37.292Z,41.72
2023-02-16T16:43:04.568Z,40.40
2023-02-16T16:45:40.953Z,42.13
2023-02-16T16:48:19.400Z,44.05
2023-02-16T16:50:46.610Z,41.40
2023-02-16T16:53:29.126Z,43.83
2023-02-16T16:55:56.987Z,45.35
2023-02-16T16:58:24.038Z,46.78
2023-02-16T17:00:50.798Z,45.67
2023-02-16T17:03:18.044Z,45.72
2023-02-16T17:05:45.243Z,47.72
2023-02-16T17:08:12.406Z,48.67
2023-02-16T17:10:40.339Z,45.30
2023-02-16T17:13:07.690Z,44.88
2023-02-16T17:15:53.981Z,47.15
2023-02-16T17:18:21.598Z,50.55
2023-02-16T17:20:48.610Z,51.35
2023-02-16T17:23:16.606Z,52.95
2023-02-16T17:25:43.525Z,55.78
2023-02-16T17:28:10.727Z,57.10
2023-02-16T17:30:37.768Z,56.45
2023-02-16T17:33:07.063Z,58.63
2023-02-16T17:35:33.919Z,57.30
2023-02-16T17:38:07.332Z,61.08
2023-02-16T17:40:34.275Z,57.33
2023-02-16T17:43:01.477Z,56.58
2023-02-16T17:45:28.292Z,57.75
2023-02-16T17:47:55.383Z,53.72
2023-02-16T17:50:22.265Z,56.72
2023-02-16T17:52:49.363Z,54.63
2023-02-16T17:55:16.261Z,56.28
2023-02-16T17:57:43.366Z,60.72
2023-02-16T18:00:14.263Z,57.97
2023-02-16T18:02:41.375Z,55.17
2023-02-16T18:05:08.294Z,59.05
2023-02-16T18:07:35.582Z,57.00
2023-02-16T18:10:02.532Z,59.42
2023-02-16T18:12:29.625Z,56.38
2023-02-16T18:14:56.746Z,56.72
2023-02-16T18:17:24.118Z,55.08
2023-02-16T18:19:50.909Z,53.95
2023-02-16T18:22:18.036Z,54.67
2023-02-16T18:24:45.155Z,53.25
2023-02-16T18:27:12.301Z,55.42
2023-02-16T18:29:39.088Z,52.85
2023-02-16T18:32:06.320Z,52.78
2023-02-16T18:34:35.049Z,53.25
2023-02-16T18:37:02.226Z,55.80
2023-02-16T18:39:29.326Z,56.50
2023-02-16T18:41:56.442Z,52.30
2023-02-16T18:44:23.216Z,55.55
2023-02-16T18:46:50.421Z,52.08
2023-02-16T18:49:17.184Z,52.67
2023-02-16T18:51:44.255Z,54.28
2023-02-16T18:54:11.043Z,52.50
2023-02-16T18:56:39.184Z,54.03
2023-02-16T18:59:06.248Z,53.72
2023-02-16T19:01:33.804Z,51.65
2023-02-16T19:04:01.386Z,51.38
2023-02-16T19:06:28.860Z,52.28
2023-02-16T19:08:56.418Z,52.35
2023-02-16T19:11:23.586Z,51.00
2023-02-16T19:13:50.442Z,52.50
2023-02-16T19:16:17.798Z,52.58
2023-02-16T19:18:44.705Z,51.33
2023-02-16T19:21:12.601Z,53.05
2023-02-16T19:23:39.504Z,52.33
2023-02-16T19:26:08.013Z,49.08
2023-02-16T19:28:35.265Z,49.33
2023-02-16T19:31:03.542Z,51.63
2023-02-16T19:33:30.643Z,50.25
2023-02-16T19:36:02.591Z,50.10
2023-02-16T19:38:29.943Z,49.10
2023-02-16T19:40:57.130Z,49.03
2023-02-16T19:43:24.561Z,50.67
2023-02-16T19:45:52.912Z,51.33
2023-02-16T19:48:19.699Z,48.85
2023-02-16T19:50:46.766Z,51.13
2023-02-16T19:53:13.554Z,49.55
2023-02-16T19:55:42.057Z,49.72
2023-02-16T19:58:08.837Z,55.97
2023-02-16T20:00:37.703Z,52.35
2023-02-16T20:03:04.734Z,53.03
2023-02-16T20:05:32.436Z,56.33
2023-02-16T20:08:02.181Z,58.20
2023-02-16T20:10:30.317Z,59.15
2023-02-16T20:12:57.077Z,57.40
2023-02-16T20:15:24.163Z,57.17
2023-02-16T20:17:51.043Z,59.22
2023-02-16T20:20:18.572Z,60.13
2023-02-16T20:22:45.380Z,55.53
2023-02-16T20:25:12.493Z,57.95
2023-02-16T20:27:39.323Z,57.50
2023-02-16T20:30:07.122Z,56.92
2023-02-16T20:32:33.970Z,55.20
2023-02-16T20:35:05.181Z,55.58
2023-02-16T20:37:31.997Z,55.58
2023-02-16T20:39:59.132Z,56.80
2023-02-16T20:42:26.089Z,54.70
2023-02-16T20:44:53.256Z,54.78
2023-02-16T20:47:20.111Z,55.25
2023-02-16T20:49:47.246Z,56.75
2023-02-16T20:52:14.522Z,53.60
2023-02-16T20:54:41.715Z,54.25
2023-02-16T20:57:21.290Z,54.88
2023-02-16T20:59:53.064Z,54.42
2023-02-16T21:02:19.868Z,54.42
2023-02-16T21:04:47.227Z,54.72
2023-02-16T21:07:14.055Z,54.15
2023-02-16T21:09:41.403Z,54.75
2023-02-16T21:12:08.253Z,54.60
2023-02-16T21:14:35.340Z,50.92
2023-02-16T21:17:02.163Z,54.53
2023-02-16T21:19:29.241Z,54.75
2023-02-16T21:21:56.025Z,51.88
2023-02-16T21:24:23.245Z,49.78
2023-02-16T21:26:50.014Z,51.45
2023-02-16T21:29:17.195Z,50.58
2023-02-16T21:31:44.201Z,50.08
2023-02-16T21:34:11.373Z,49.10
2023-02-16T21:36:38.924Z,49.22
2023-02-16T21:39:06.113Z,48.85
2023-02-16T21:41:32.890Z,48.28
2023-02-16T21:44:12.131Z,51.00
2023-02-16T21:46:46.582Z,46.05
2023-02-16T21:49:15.542Z,46.65
2023-02-16T21:51:42.956Z,47.42
2023-02-16T21:54:13.763Z,46.63
2023-02-16T21:56:42.749Z,47.17
2023-02-16T21:59:11.836Z,47.67
2023-02-16T22:01:51.021Z,46.30
2023-02-16T22:04:20.134Z,46.08
2023-02-16T22:06:47.669Z,47.53
2023-02-16T22:09:17.620Z,46.13
2023-02-16T22:11:44.899Z,45.28
2023-02-16T22:14:12.080Z,47.83
2023-02-16T22:16:39.224Z,47.83
2023-02-16T22:19:08.346Z,47.03
2023-02-16T22:21:36.872Z,47.13
2023-02-16T22:24:04.254Z,44.72
2023-02-16T22:26:32.300Z,46.97
2023-02-16T22:28:59.346Z,46.60
2023-02-16T22:31:27.001Z,46.33
2023-02-16T22:33:58.405Z,47.40
2023-02-16T22:36:25.372Z,44.42
2023-02-16T22:38:52.960Z,47.35
2023-02-16T22:41:19.908Z,46.85
2023-02-16T22:43:47.046Z,47.80
2023-02-16T22:46:15.995Z,46.13
2023-02-16T22:48:43.510Z,46.72
2023-02-16T22:51:12.175Z,45.28
2023-02-16T22:53:39.437Z,45.17
2023-02-16T22:56:07.625Z,46.92
2023-02-16T22:58:35.021Z,46.50
2023-02-16T23:01:01.810Z,46.20
2023-02-16T23:03:29.251Z,43.13
2023-02-16T23:05:56.028Z,44.55
2023-02-16T23:08:23.132Z,44.15
2023-02-16T23:11:02.047Z,44.38
2023-02-16T23:13:30.346Z,44.47
2023-02-16T23:15:57.337Z,43.90
2023-02-16T23:18:24.756Z,42.42
2023-02-16T23:20:51.584Z,44.30
2023-02-16T23:23:18.786Z,43.88
2023-02-16T23:25:46.541Z,42.03
2023-02-16T23:28:13.737Z,41.80
2023-02-16T23:30:44.721Z,44.38
2023-02-16T23:33:12.199Z,42.00
2023-02-16T23:35:39.652Z,42.30
2023-02-16T23:38:07.677Z,42.60
2023-02-16T23:40:34.515Z,44.78
2023-02-16T23:43:01.612Z,44.55
2023-02-16T23:45:28.430Z,43.28
2023-02-16T23:47:55.496Z,41.08
2023-02-16T23:50:22.360Z,44.22
2023-02-16T23:52:49.460Z,42.22
2023-02-16T23:55:16.233Z,43.08
2023-02-16T23:57:43.303Z,43.38
